Kaya — UCAJ — position and weather

sailwx.info

Track history (hours):
 
Tides and Currents Weather Stations Pressure Air Temp Water Temp Dewpoint Dewpoint Depression Visibility Wind Speed Wind Dir Waves Ship Positions

Kaya

Last reported at 2018-Apr-15 19:16 UTC. Time now 2018-Apr-20 14:45 UTC.
Position N 29°25' W 013°49'.

Length 129 m; draft 4.2 m.

Type: Cargo ship. MMSI: 273398650.

Date/timePositionNaut miles runAvg speedWind from/ knotsBaromVisibWave heightAir tempDewpointWater temp
2018-Apr-15 19:16N 29°25' W 013°49'311.2
2018-Apr-15 19:00N 29°23' W 013°51'611.2
2018-Apr-15 18:30N 29°20' W 013°56'611.3
2018-Apr-15 18:01N 29°16' W 014°01'811.1
2018-Apr-15 17:20N 29°11' W 014°07'411.1
2018-Apr-15 16:59N 29°08' W 014°11'511.1
2018-Apr-15 16:30N 29°05' W 014°15'611.3
2018-Apr-15 15:58N 29°01' W 014°20'611.3
2018-Apr-15 15:29N 28°57' W 014°25'511.4
2018-Apr-15 15:01N 28°54' W 014°30'611.3
2018-Apr-15 14:30N 28°50' W 014°35'611.3
2018-Apr-15 13:59N 28°46' W 014°40'511.1
2018-Apr-15 13:30N 28°42' W 014°44'611.1
2018-Apr-15 13:00N 28°38' W 014°49'511.1
2018-Apr-15 12:30N 28°35' W 014°53'611.2
2018-Apr-15 11:59N 28°31' W 014°58'511.3
2018-Apr-15 11:30N 28°27' W 015°03'611.2
2018-Apr-15 11:00N 28°23' W 015°08'511.2
2018-Apr-15 10:30N 28°19' W 015°12'611.1
2018-Apr-15 10:00N 28°15' W 015°16'611.2
2018-Apr-15 09:30N 28°11' W 015°20'4 7.5
2018-Apr-15 08:57N 28°08' W 015°24'0 0.1
2018-Apr-15 08:27N 28°08' W 015°24'0 0.0
2018-Apr-15 07:57N 28°08' W 015°24'0 0.0
2018-Apr-15 07:30N 28°08' W 015°24'0 0.0
2018-Apr-15 07:00N 28°08' W 015°24'0 0.0
2018-Apr-15 06:30N 28°08' W 015°24'0 0.0
2018-Apr-15 06:00N 28°08' W 015°24'0 0.0
2018-Apr-15 05:15N 28°08' W 015°24'0 0.0
2018-Apr-15 04:57N 28°08' W 015°24'0 0.0
2018-Apr-15 04:30N 28°08' W 015°24'0 0.0
2018-Apr-15 04:00N 28°08' W 015°24'0 0.0
2018-Apr-15 03:30N 28°08' W 015°24'0 0.0
2018-Apr-15 03:00N 28°08' W 015°24'0 0.0
2018-Apr-15 02:30N 28°08' W 015°24'0 0.0
2018-Apr-15 02:00N 28°08' W 015°24'0 0.0
2018-Apr-15 01:30N 28°08' W 015°24'0 0.0
2018-Apr-15 00:51N 28°08' W 015°24'0 0.0
2018-Apr-15 00:30N 28°08' W 015°24'0 0.1
2018-Apr-15 00:00N 28°08' W 015°24'0 0.0
2018-Apr-14 23:30N 28°08' W 015°24'0 0.0
2018-Apr-14 22:51N 28°08' W 015°24'0 0.0
2018-Apr-14 22:21N 28°08' W 015°24'0 0.0
2018-Apr-14 21:54N 28°08' W 015°24'0 0.0
2018-Apr-14 21:24N 28°08' W 015°24'0 0.0
2018-Apr-14 20:54N 28°08' W 015°24'0 0.0
2018-Apr-14 20:24N 28°08' W 015°24'0 0.1
2018-Apr-14 19:54N 28°08' W 015°24'0 0.0
2018-Apr-14 19:24N 28°08' W 015°24'1 1.5
2018-Apr-14 19:00N 28°08' W 015°23'511.0
2018-Apr-14 18:30N 28°03' W 015°20'611.2
2018-Apr-14 18:00N 27°59' W 015°17'510.6
2018-Apr-14 17:30N 27°54' W 015°16'510.1
2018-Apr-14 17:00N 27°48' W 015°16'510.1
2018-Apr-14 16:30N 27°43' W 015°17'611.0
2018-Apr-14 15:59N 27°38' W 015°19'  
Track history (hours):
 
Tides and Currents Weather Stations Pressure Air Temp Water Temp Dewpoint Dewpoint Depression Visibility Wind Speed Wind Dir Waves Ship Positions

Kaya

Last reported at 2018-Apr-15 19:16 UTC. Time now 2018-Apr-20 14:45 UTC.
Position N 29°25' W 013°49'.

Length 129 m; draft 4.2 m.

Type: Cargo ship. MMSI: 273398650.

Date/timePositionNaut miles runAvg speedWind from/ knotsBaromVisibWave heightAir tempDewpointWater temp
2018-Apr-15 19:16N 29°25' W 013°49'311.2
2018-Apr-15 19:00N 29°23' W 013°51'611.2
2018-Apr-15 18:30N 29°20' W 013°56'611.3
2018-Apr-15 18:01N 29°16' W 014°01'811.1
2018-Apr-15 17:20N 29°11' W 014°07'411.1
2018-Apr-15 16:59N 29°08' W 014°11'511.1
2018-Apr-15 16:30N 29°05' W 014°15'611.3
2018-Apr-15 15:58N 29°01' W 014°20'611.3
2018-Apr-15 15:29N 28°57' W 014°25'511.4
2018-Apr-15 15:01N 28°54' W 014°30'611.3
2018-Apr-15 14:30N 28°50' W 014°35'611.3
2018-Apr-15 13:59N 28°46' W 014°40'511.1
2018-Apr-15 13:30N 28°42' W 014°44'611.1
2018-Apr-15 13:00N 28°38' W 014°49'511.1
2018-Apr-15 12:30N 28°35' W 014°53'611.2
2018-Apr-15 11:59N 28°31' W 014°58'511.3
2018-Apr-15 11:30N 28°27' W 015°03'611.2
2018-Apr-15 11:00N 28°23' W 015°08'511.2
2018-Apr-15 10:30N 28°19' W 015°12'611.1
2018-Apr-15 10:00N 28°15' W 015°16'611.2
2018-Apr-15 09:30N 28°11' W 015°20'4 7.5
2018-Apr-15 08:57N 28°08' W 015°24'0 0.1
2018-Apr-15 08:27N 28°08' W 015°24'0 0.0
2018-Apr-15 07:57N 28°08' W 015°24'0 0.0
2018-Apr-15 07:30N 28°08' W 015°24'0 0.0
2018-Apr-15 07:00N 28°08' W 015°24'0 0.0
2018-Apr-15 06:30N 28°08' W 015°24'0 0.0
2018-Apr-15 06:00N 28°08' W 015°24'0 0.0
2018-Apr-15 05:15N 28°08' W 015°24'0 0.0
2018-Apr-15 04:57N 28°08' W 015°24'0 0.0
2018-Apr-15 04:30N 28°08' W 015°24'0 0.0
2018-Apr-15 04:00N 28°08' W 015°24'0 0.0
2018-Apr-15 03:30N 28°08' W 015°24'0 0.0
2018-Apr-15 03:00N 28°08' W 015°24'0 0.0
2018-Apr-15 02:30N 28°08' W 015°24'0 0.0
2018-Apr-15 02:00N 28°08' W 015°24'0 0.0
2018-Apr-15 01:30N 28°08' W 015°24'0 0.0
2018-Apr-15 00:51N 28°08' W 015°24'0 0.0
2018-Apr-15 00:30N 28°08' W 015°24'0 0.1
2018-Apr-15 00:00N 28°08' W 015°24'0 0.0
2018-Apr-14 23:30N 28°08' W 015°24'0 0.0
2018-Apr-14 22:51N 28°08' W 015°24'0 0.0
2018-Apr-14 22:21N 28°08' W 015°24'0 0.0
2018-Apr-14 21:54N 28°08' W 015°24'0 0.0
2018-Apr-14 21:24N 28°08' W 015°24'0 0.0
2018-Apr-14 20:54N 28°08' W 015°24'0 0.0
2018-Apr-14 20:24N 28°08' W 015°24'0 0.1
2018-Apr-14 19:54N 28°08' W 015°24'0 0.0
2018-Apr-14 19:24N 28°08' W 015°24'1 1.5
2018-Apr-14 19:00N 28°08' W 015°23'511.0
2018-Apr-14 18:30N 28°03' W 015°20'611.2
2018-Apr-14 18:00N 27°59' W 015°17'510.6
2018-Apr-14 17:30N 27°54' W 015°16'510.1
2018-Apr-14 17:00N 27°48' W 015°16'510.1
2018-Apr-14 16:30N 27°43' W 015°17'611.0
2018-Apr-14 15:59N 27°38' W 015°19'  

Dump ship's entire track history